sensor_id;sensor_type;location;lat;lon;timestamp;pressure;altitude;pressure_sealevel;temperature;humidity
61742;BME280;47650;49.848;9.620;2023-05-22T00:00:21;99308.38;;;16.85;67.86
61742;BME280;47650;49.848;9.620;2023-05-22T00:02:47;99296.97;;;16.83;68.31
61742;BME280;47650;49.848;9.620;2023-05-22T00:05:15;99303.56;;;16.81;68.22
61742;BME280;47650;49.848;9.620;2023-05-22T00:07:44;99307.25;;;16.80;68.07
61742;BME280;47650;49.848;9.620;2023-05-22T00:10:10;99301.47;;;16.76;68.02
61742;BME280;47650;49.848;9.620;2023-05-22T00:12:46;99298.16;;;16.74;67.79
61742;BME280;47650;49.848;9.620;2023-05-22T00:15:11;99301.84;;;16.73;67.79
61742;BME280;47650;49.848;9.620;2023-05-22T00:17:40;99295.41;;;16.67;68.11
61742;BME280;47650;49.848;9.620;2023-05-22T00:20:09;99299.94;;;16.67;68.07
61742;BME280;47650;49.848;9.620;2023-05-22T00:22:36;99301.81;;;16.66;68.34
61742;BME280;47650;49.848;9.620;2023-05-22T00:25:03;99298.47;;;16.64;68.64
61742;BME280;47650;49.848;9.620;2023-05-22T00:27:32;99296.19;;;16.61;68.94
61742;BME280;47650;49.848;9.620;2023-05-22T00:29:58;99267.38;;;16.42;68.64
61742;BME280;47650;49.848;9.620;2023-05-22T00:32:26;99265.56;;;16.42;68.47
61742;BME280;47650;49.848;9.620;2023-05-22T00:34:51;99294.28;;;16.55;68.24
61742;BME280;47650;49.848;9.620;2023-05-22T00:37:28;99296.31;;;16.53;68.22
61742;BME280;47650;49.848;9.620;2023-05-22T00:39:55;99292.34;;;16.49;68.06
61742;BME280;47650;49.848;9.620;2023-05-22T00:42:21;99290.72;;;16.48;68.48
61742;BME280;47650;49.848;9.620;2023-05-22T00:44:47;99291.91;;;16.45;68.58
61742;BME280;47650;49.848;9.620;2023-05-22T00:47:13;99293.75;;;16.45;68.98
61742;BME280;47650;49.848;9.620;2023-05-22T00:49:39;99284.09;;;16.44;68.81
61742;BME280;47650;49.848;9.620;2023-05-22T00:52:06;99068.38;;;15.07;69.34
61742;BME280;47650;49.848;9.620;2023-05-22T00:54:34;99274.72;;;16.33;69.09
61742;BME280;47650;49.848;9.620;2023-05-22T00:57:00;99279.25;;;16.32;68.81
61742;BME280;47650;49.848;9.620;2023-05-22T00:59:26;99253.56;;;16.16;68.64
61742;BME280;47650;49.848;9.620;2023-05-22T01:01:52;99258.06;;;16.16;68.74
61742;BME280;47650;49.848;9.620;2023-05-22T01:04:18;99288.28;;;16.31;68.74
61742;BME280;47650;49.848;9.620;2023-05-22T01:06:44;99283.97;;;16.30;68.78
61742;BME280;47650;49.848;9.620;2023-05-22T01:09:12;99226.00;;;15.94;68.87
61742;BME280;47650;49.848;9.620;2023-05-22T01:11:54;99286.38;;;16.25;69.24
61742;BME280;47650;49.848;9.620;2023-05-22T01:14:32;99291.72;;;16.25;69.49
61742;BME280;47650;49.848;9.620;2023-05-22T01:20:05;99287.56;;;16.23;69.92
61742;BME280;47650;49.848;9.620;2023-05-22T01:31:18;99278.31;;;16.04;70.49
61742;BME280;47650;49.848;9.620;2023-05-22T01:33:48;99288.91;;;16.12;70.15
61742;BME280;47650;49.848;9.620;2023-05-22T01:36:17;99295.91;;;16.13;69.96
61742;BME280;47650;49.848;9.620;2023-05-22T01:38:51;99285.59;;;16.10;70.29
61742;BME280;47650;49.848;9.620;2023-05-22T01:41:19;99292.81;;;16.09;70.38
61742;BME280;47650;49.848;9.620;2023-05-22T01:43:47;99209.84;;;15.51;70.26
61742;BME280;47650;49.848;9.620;2023-05-22T01:46:12;99304.31;;;16.10;70.20
61742;BME280;47650;49.848;9.620;2023-05-22T01:48:38;99302.66;;;16.09;69.68
61742;BME280;47650;49.848;9.620;2023-05-22T01:51:14;99301.38;;;16.05;69.43
61742;BME280;47650;49.848;9.620;2023-05-22T01:53:50;99298.06;;;16.03;69.42
61742;BME280;47650;49.848;9.620;2023-05-22T01:56:22;99301.75;;;16.02;68.99
61742;BME280;47650;49.848;9.620;2023-05-22T01:59:03;99309.13;;;16.00;69.29
61742;BME280;47650;49.848;9.620;2023-05-22T02:01:35;99309.50;;;15.96;69.45
61742;BME280;47650;49.848;9.620;2023-05-22T02:04:06;99302.06;;;15.92;69.33
61742;BME280;47650;49.848;9.620;2023-05-22T02:06:33;99310.63;;;15.87;69.17
61742;BME280;47650;49.848;9.620;2023-05-22T02:09:01;99303.97;;;15.83;69.59
61742;BME280;47650;49.848;9.620;2023-05-22T02:11:28;99268.25;;;15.54;69.57
61742;BME280;47650;49.848;9.620;2023-05-22T02:13:55;99242.13;;;15.35;69.64
61742;BME280;47650;49.848;9.620;2023-05-22T02:16:22;99311.66;;;15.71;69.67
61742;BME280;47650;49.848;9.620;2023-05-22T02:18:48;99225.63;;;15.16;70.19
61742;BME280;47650;49.848;9.620;2023-05-22T02:21:17;99301.59;;;15.58;70.63
61742;BME280;47650;49.848;9.620;2023-05-22T02:23:43;99310.47;;;15.59;70.37
61742;BME280;47650;49.848;9.620;2023-05-22T02:26:08;99307.31;;;15.55;70.15
61742;BME280;47650;49.848;9.620;2023-05-22T02:28:34;99162.84;;;14.61;70.28
61742;BME280;47650;49.848;9.620;2023-05-22T02:30:59;99308.06;;;15.49;70.34
61742;BME280;47650;49.848;9.620;2023-05-22T02:33:27;99274.06;;;15.28;70.25
61742;BME280;47650;49.848;9.620;2023-05-22T02:35:56;99314.13;;;15.43;70.55
61742;BME280;47650;49.848;9.620;2023-05-22T02:38:24;99307.16;;;15.42;70.66
61742;BME280;47650;49.848;9.620;2023-05-22T02:40:50;99312.84;;;15.39;71.22
61742;BME280;47650;49.848;9.620;2023-05-22T02:43:16;99272.59;;;15.11;70.87
61742;BME280;47650;49.848;9.620;2023-05-22T02:45:42;99268.72;;;15.13;70.75
61742;BME280;47650;49.848;9.620;2023-05-22T02:48:07;99303.56;;;15.35;70.78
61742;BME280;47650;49.848;9.620;2023-05-22T02:50:37;99289.81;;;15.23;70.66
61742;BME280;47650;49.848;9.620;2023-05-22T02:53:03;99305.56;;;15.33;70.87
61742;BME280;47650;49.848;9.620;2023-05-22T02:55:28;99277.53;;;15.14;70.77
61742;BME280;47650;49.848;9.620;2023-05-22T02:57:53;99273.50;;;15.03;70.79
61742;BME280;47650;49.848;9.620;2023-05-22T03:00:19;99300.69;;;15.21;70.62
61742;BME280;47650;49.848;9.620;2023-05-22T03:02:47;99300.22;;;15.18;70.46
61742;BME280;47650;49.848;9.620;2023-05-22T03:05:14;99304.47;;;15.12;70.74
61742;BME280;47650;49.848;9.620;2023-05-22T03:07:42;99286.72;;;14.96;70.79
61742;BME280;47650;49.848;9.620;2023-05-22T03:10:07;99311.50;;;15.05;70.72
61742;BME280;47650;49.848;9.620;2023-05-22T03:12:32;99295.59;;;14.97;71.09
61742;BME280;47650;49.848;9.620;2023-05-22T03:15:06;99308.56;;;15.00;71.12
61742;BME280;47650;49.848;9.620;2023-05-22T03:17:32;99236.91;;;14.59;71.17
61742;BME280;47650;49.848;9.620;2023-05-22T03:19:57;99306.28;;;14.97;71.36
61742;BME280;47650;49.848;9.620;2023-05-22T03:22:23;99297.31;;;14.90;71.16
61742;BME280;47650;49.848;9.620;2023-05-22T03:24:49;99305.81;;;14.93;71.18
61742;BME280;47650;49.848;9.620;2023-05-22T03:27:15;99301.66;;;14.91;71.15
61742;BME280;47650;49.848;9.620;2023-05-22T03:29:41;99177.94;;;14.07;71.47
61742;BME280;47650;49.848;9.620;2023-05-22T03:32:06;99300.19;;;14.88;71.62
61742;BME280;47650;49.848;9.620;2023-05-22T03:34:34;99228.34;;;14.40;71.77
61742;BME280;47650;49.848;9.620;2023-05-22T03:37:02;99287.59;;;14.74;71.75
61742;BME280;47650;49.848;9.620;2023-05-22T03:39:30;99282.63;;;14.71;71.43
61742;BME280;47650;49.848;9.620;2023-05-22T03:41:57;99305.69;;;14.87;71.21
61742;BME280;47650;49.848;9.620;2023-05-22T03:44:25;99273.50;;;14.65;71.11
61742;BME280;47650;49.848;9.620;2023-05-22T03:46:50;99315.34;;;14.88;71.26
61742;BME280;47650;49.848;9.620;2023-05-22T03:49:15;99264.84;;;14.63;71.52
61742;BME280;47650;49.848;9.620;2023-05-22T03:51:42;99273.16;;;14.68;71.97
61742;BME280;47650;49.848;9.620;2023-05-22T03:54:07;99310.94;;;14.95;72.14
61742;BME280;47650;49.848;9.620;2023-05-22T03:56:33;99288.66;;;14.88;72.26
61742;BME280;47650;49.848;9.620;2023-05-22T03:59:02;99300.81;;;15.05;72.00
61742;BME280;47650;49.848;9.620;2023-05-22T04:01:29;99297.16;;;15.06;71.81
61742;BME280;47650;49.848;9.620;2023-05-22T04:03:55;99305.91;;;15.15;71.60
61742;BME280;47650;49.848;9.620;2023-05-22T04:06:20;99299.47;;;15.09;71.68
61742;BME280;47650;49.848;9.620;2023-05-22T04:08:47;99245.66;;;14.82;71.18
61742;BME280;47650;49.848;9.620;2023-05-22T04:11:13;99294.69;;;15.19;71.06
61742;BME280;47650;49.848;9.620;2023-05-22T04:13:40;99310.19;;;15.39;71.17
61742;BME280;47650;49.848;9.620;2023-05-22T04:16:06;99297.72;;;15.46;70.86
61742;BME280;47650;49.848;9.620;2023-05-22T04:18:31;99312.75;;;15.62;70.69
61742;BME280;47650;49.848;9.620;2023-05-22T04:20:57;99319.66;;;15.71;69.95
61742;BME280;47650;49.848;9.620;2023-05-22T04:23:28;99294.50;;;15.66;69.67
61742;BME280;47650;49.848;9.620;2023-05-22T04:25:54;99323.44;;;15.92;69.61
61742;BME280;47650;49.848;9.620;2023-05-22T04:28:19;99330.16;;;16.03;68.77
61742;BME280;47650;49.848;9.620;2023-05-22T04:30:48;99276.53;;;15.89;68.46
61742;BME280;47650;49.848;9.620;2023-05-22T04:33:14;99317.00;;;16.23;67.79
61742;BME280;47650;49.848;9.620;2023-05-22T04:35:41;99297.91;;;16.26;67.83
61742;BME280;47650;49.848;9.620;2023-05-22T04:38:10;99315.81;;;16.47;67.37
61742;BME280;47650;49.848;9.620;2023-05-22T04:40:38;99316.31;;;16.57;67.09
61742;BME280;47650;49.848;9.620;2023-05-22T04:43:03;99295.94;;;16.56;67.03
61742;BME280;47650;49.848;9.620;2023-05-22T04:45:29;99321.50;;;16.80;66.74
61742;BME280;47650;49.848;9.620;2023-05-22T04:47:55;99313.75;;;16.92;66.54
61742;BME280;47650;49.848;9.620;2023-05-22T04:50:22;99300.19;;;16.94;65.85
61742;BME280;47650;49.848;9.620;2023-05-22T04:52:48;99318.09;;;17.21;65.48
61742;BME280;47650;49.848;9.620;2023-05-22T04:55:21;99294.84;;;17.22;65.49
61742;BME280;47650;49.848;9.620;2023-05-22T04:57:48;99317.84;;;17.44;65.40
61742;BME280;47650;49.848;9.620;2023-05-22T05:00:13;99317.09;;;17.57;65.47
61742;BME280;47650;49.848;9.620;2023-05-22T05:02:40;99316.13;;;17.72;65.00
61742;BME280;47650;49.848;9.620;2023-05-22T05:05:06;99315.00;;;17.88;64.76
61742;BME280;47650;49.848;9.620;2023-05-22T05:07:36;99315.69;;;18.03;64.63
61742;BME280;47650;49.848;9.620;2023-05-22T05:10:03;99312.63;;;18.19;64.09
61742;BME280;47650;49.848;9.620;2023-05-22T05:12:29;99311.22;;;18.37;63.55
61742;BME280;47650;49.848;9.620;2023-05-22T05:14:54;99315.78;;;18.56;63.22
61742;BME280;47650;49.848;9.620;2023-05-22T05:17:20;99306.53;;;18.72;63.10
61742;BME280;47650;49.848;9.620;2023-05-22T05:19:50;99308.03;;;18.88;62.41
61742;BME280;47650;49.848;9.620;2023-05-22T05:22:15;99268.50;;;18.75;61.31
61742;BME280;47650;49.848;9.620;2023-05-22T05:24:41;99257.59;;;18.90;61.40
61742;BME280;47650;49.848;9.620;2023-05-22T05:27:07;99226.63;;;18.88;61.18
61742;BME280;47650;49.848;9.620;2023-05-22T05:29:32;99305.44;;;19.53;60.55
61742;BME280;47650;49.848;9.620;2023-05-22T05:31:57;99278.97;;;19.57;59.76
61742;BME280;47650;49.848;9.620;2023-05-22T05:34:23;99294.38;;;19.88;59.53
61742;BME280;47650;49.848;9.620;2023-05-22T05:36:54;99309.59;;;20.08;58.92
61742;BME280;47650;49.848;9.620;2023-05-22T05:39:21;99216.75;;;19.40;58.50
61742;BME280;47650;49.848;9.620;2023-05-22T05:41:47;99318.19;;;20.30;58.40
61742;BME280;47650;49.848;9.620;2023-05-22T05:44:13;99306.28;;;20.44;58.27
61742;BME280;47650;49.848;9.620;2023-05-22T05:46:40;99303.28;;;20.66;58.09
61742;BME280;47650;49.848;9.620;2023-05-22T05:49:10;99288.09;;;20.72;57.53
61742;BME280;47650;49.848;9.620;2023-05-22T05:51:50;99300.25;;;21.06;56.87
61742;BME280;47650;49.848;9.620;2023-05-22T05:54:16;99301.56;;;21.22;56.07
61742;BME280;47650;49.848;9.620;2023-05-22T05:56:43;99299.25;;;21.44;55.65
61742;BME280;47650;49.848;9.620;2023-05-22T05:59:10;99295.53;;;21.64;54.67
61742;BME280;47650;49.848;9.620;2023-05-22T06:01:37;99295.53;;;21.82;54.68
61742;BME280;47650;49.848;9.620;2023-05-22T06:04:03;99254.91;;;21.40;54.32
61742;BME280;47650;49.848;9.620;2023-05-22T06:06:30;99101.94;;;19.86;57.15
61742;BME280;47650;49.848;9.620;2023-05-22T06:09:07;99306.53;;;21.00;57.64
61742;BME280;47650;49.848;9.620;2023-05-22T06:11:35;99304.75;;;21.12;57.21
61742;BME280;47650;49.848;9.620;2023-05-22T06:14:03;99297.13;;;21.28;57.58
61742;BME280;47650;49.848;9.620;2023-05-22T06:16:28;99292.03;;;21.19;57.75
61742;BME280;47650;49.848;9.620;2023-05-22T06:18:54;99290.94;;;21.46;56.98
61742;BME280;47650;49.848;9.620;2023-05-22T06:21:21;99295.19;;;21.35;59.33
61742;BME280;47650;49.848;9.620;2023-05-22T06:23:50;99290.28;;;21.69;57.47
61742;BME280;47650;49.848;9.620;2023-05-22T06:26:16;99291.53;;;22.03;56.48
61742;BME280;47650;49.848;9.620;2023-05-22T06:28:48;99269.63;;;22.53;55.61
61742;BME280;47650;49.848;9.620;2023-05-22T06:31:16;99283.91;;;22.96;54.29
61742;BME280;47650;49.848;9.620;2023-05-22T06:33:42;99220.53;;;22.80;54.51
61742;BME280;47650;49.848;9.620;2023-05-22T06:36:07;99283.56;;;23.52;52.67
61742;BME280;47650;49.848;9.620;2023-05-22T06:38:33;99261.66;;;23.53;50.72
61742;BME280;47650;49.848;9.620;2023-05-22T06:40:58;99278.84;;;23.99;50.00
61742;BME280;47650;49.848;9.620;2023-05-22T06:43:23;99272.13;;;23.50;50.42
61742;BME280;47650;49.848;9.620;2023-05-22T06:45:49;99269.63;;;24.12;49.11
61742;BME280;47650;49.848;9.620;2023-05-22T06:48:15;99227.59;;;24.10;48.80
61742;BME280;47650;49.848;9.620;2023-05-22T06:50:41;99275.56;;;24.26;48.92
61742;BME280;47650;49.848;9.620;2023-05-22T06:53:06;99265.03;;;24.58;47.83
61742;BME280;47650;49.848;9.620;2023-05-22T06:55:31;99268.91;;;24.80;47.23
61742;BME280;47650;49.848;9.620;2023-05-22T06:57:57;99269.38;;;24.93;47.03
61742;BME280;47650;49.848;9.620;2023-05-22T07:00:22;99273.31;;;24.69;45.64
61742;BME280;47650;49.848;9.620;2023-05-22T07:02:54;99272.44;;;25.19;45.88
61742;BME280;47650;49.848;9.620;2023-05-22T07:05:20;99239.97;;;25.24;45.10
61742;BME280;47650;49.848;9.620;2023-05-22T07:07:46;99267.09;;;25.02;45.18
61742;BME280;47650;49.848;9.620;2023-05-22T07:10:12;99269.16;;;25.17;46.03
61742;BME280;47650;49.848;9.620;2023-05-22T07:12:46;99268.81;;;25.47;44.34
61742;BME280;47650;49.848;9.620;2023-05-22T07:15:12;99211.88;;;25.30;44.21
61742;BME280;47650;49.848;9.620;2023-05-22T07:17:40;99264.28;;;25.97;43.32
61742;BME280;47650;49.848;9.620;2023-05-22T07:20:08;99263.19;;;25.98;41.88
61742;BME280;47650;49.848;9.620;2023-05-22T07:22:33;99230.91;;;26.02;42.91
61742;BME280;47650;49.848;9.620;2023-05-22T07:24:59;99233.50;;;26.19;40.15
61742;BME280;47650;49.848;9.620;2023-05-22T07:27:26;99205.38;;;26.30;40.70
61742;BME280;47650;49.848;9.620;2023-05-22T07:29:54;99185.13;;;26.16;40.52
61742;BME280;47650;49.848;9.620;2023-05-22T07:32:19;99263.44;;;26.83;38.02
61742;BME280;47650;49.848;9.620;2023-05-22T07:34:45;99266.25;;;26.61;38.13
61742;BME280;47650;49.848;9.620;2023-05-22T07:37:11;99260.78;;;26.94;38.73
61742;BME280;47650;49.848;9.620;2023-05-22T07:39:38;99235.13;;;26.79;39.28
61742;BME280;47650;49.848;9.620;2023-05-22T07:42:04;99247.47;;;26.97;38.01
61742;BME280;47650;49.848;9.620;2023-05-22T07:44:32;99185.28;;;26.69;38.23
61742;BME280;47650;49.848;9.620;2023-05-22T07:46:58;99248.94;;;27.10;37.89
61742;BME280;47650;49.848;9.620;2023-05-22T07:49:25;99249.38;;;26.97;38.09
61742;BME280;47650;49.848;9.620;2023-05-22T07:51:53;99250.63;;;27.21;37.89
61742;BME280;47650;49.848;9.620;2023-05-22T07:54:19;99238.00;;;27.05;37.36
61742;BME280;47650;49.848;9.620;2023-05-22T07:56:44;99241.44;;;24.76;41.31
61742;BME280;47650;49.848;9.620;2023-05-22T07:59:10;99211.03;;;25.96;39.12
61742;BME280;47650;49.848;9.620;2023-05-22T08:01:38;99213.63;;;26.45;38.45
61742;BME280;47650;49.848;9.620;2023-05-22T08:04:06;99264.94;;;27.01;38.22
61742;BME280;47650;49.848;9.620;2023-05-22T08:06:33;99242.16;;;27.18;36.84
61742;BME280;47650;49.848;9.620;2023-05-22T08:09:01;99214.09;;;27.12;37.34
61742;BME280;47650;49.848;9.620;2023-05-22T08:11:29;99240.41;;;27.44;35.65
61742;BME280;47650;49.848;9.620;2023-05-22T08:13:54;99220.31;;;27.55;35.24
61742;BME280;47650;49.848;9.620;2023-05-22T08:16:22;99228.88;;;27.90;34.02
61742;BME280;47650;49.848;9.620;2023-05-22T08:18:48;99254.84;;;28.39;34.59
61742;BME280;47650;49.848;9.620;2023-05-22T08:21:13;99248.84;;;28.31;34.14
61742;BME280;47650;49.848;9.620;2023-05-22T08:23:46;99111.69;;;27.64;33.25
61742;BME280;47650;49.848;9.620;2023-05-22T08:26:11;99250.75;;;28.46;33.22
61742;BME280;47650;49.848;9.620;2023-05-22T08:28:37;99188.06;;;28.21;34.16
61742;BME280;47650;49.848;9.620;2023-05-22T08:31:07;99252.72;;;28.61;33.68
61742;BME280;47650;49.848;9.620;2023-05-22T08:33:32;99111.59;;;26.65;35.30
61742;BME280;47650;49.848;9.620;2023-05-22T08:35:57;99108.13;;;27.43;34.20
61742;BME280;47650;49.848;9.620;2023-05-22T08:38:23;99196.78;;;28.43;34.43
61742;BME280;47650;49.848;9.620;2023-05-22T08:40:49;99236.28;;;29.02;33.39
61742;BME280;47650;49.848;9.620;2023-05-22T08:43:14;99234.63;;;29.22;33.52
61742;BME280;47650;49.848;9.620;2023-05-22T08:45:42;99182.16;;;29.40;33.66
61742;BME280;47650;49.848;9.620;2023-05-22T08:48:11;99222.72;;;29.68;32.81
61742;BME280;47650;49.848;9.620;2023-05-22T08:50:40;99228.28;;;29.97;33.13
61742;BME280;47650;49.848;9.620;2023-05-22T08:53:10;99200.97;;;29.97;32.62
61742;BME280;47650;49.848;9.620;2023-05-22T08:55:37;99219.03;;;30.67;32.25
61742;BME280;47650;49.848;9.620;2023-05-22T08:58:04;99215.63;;;30.80;32.04
61742;BME280;47650;49.848;9.620;2023-05-22T09:00:34;99155.72;;;30.79;31.79
61742;BME280;47650;49.848;9.620;2023-05-22T09:03:03;99204.59;;;31.39;31.17
61742;BME280;47650;49.848;9.620;2023-05-22T09:05:30;99215.31;;;31.59;31.61
61742;BME280;47650;49.848;9.620;2023-05-22T09:07:58;99198.03;;;31.16;31.05
61742;BME280;47650;49.848;9.620;2023-05-22T09:10:24;99201.03;;;31.62;31.36
61742;BME280;47650;49.848;9.620;2023-05-22T09:13:08;99211.63;;;32.26;28.66
61742;BME280;47650;49.848;9.620;2023-05-22T09:15:37;99218.94;;;30.77;30.42
61742;BME280;47650;49.848;9.620;2023-05-22T09:18:04;99225.06;;;30.29;31.12
61742;BME280;47650;49.848;9.620;2023-05-22T09:20:39;99219.88;;;30.97;29.70
61742;BME280;47650;49.848;9.620;2023-05-22T09:23:14;99207.66;;;33.40;27.47
61742;BME280;47650;49.848;9.620;2023-05-22T09:25:45;99179.84;;;34.51;25.16
61742;BME280;47650;49.848;9.620;2023-05-22T09:28:11;99182.28;;;34.52;25.05
61742;BME280;47650;49.848;9.620;2023-05-22T09:30:36;99185.03;;;34.75;24.46
61742;BME280;47650;49.848;9.620;2023-05-22T09:33:02;99184.28;;;33.28;25.65
61742;BME280;47650;49.848;9.620;2023-05-22T09:35:32;99207.22;;;34.78;23.98
61742;BME280;47650;49.848;9.620;2023-05-22T09:37:57;99216.63;;;33.45;25.97
61742;BME280;47650;49.848;9.620;2023-05-22T09:40:22;99177.88;;;36.24;23.04
61742;BME280;47650;49.848;9.620;2023-05-22T09:42:49;99189.69;;;37.57;22.24
61742;BME280;47650;49.848;9.620;2023-05-22T09:45:18;99197.53;;;37.97;20.95
61742;BME280;47650;49.848;9.620;2023-05-22T09:47:47;99191.16;;;38.97;19.88
61742;BME280;47650;49.848;9.620;2023-05-22T09:50:13;99185.16;;;40.26;19.91
61742;BME280;47650;49.848;9.620;2023-05-22T09:52:39;99159.69;;;40.84;18.80
61742;BME280;47650;49.848;9.620;2023-05-22T09:55:09;99152.00;;;40.93;17.98
61742;BME280;47650;49.848;9.620;2023-05-22T09:57:41;99185.44;;;40.96;17.77
61742;BME280;47650;49.848;9.620;2023-05-22T10:00:11;99163.47;;;39.75;19.01
61742;BME280;47650;49.848;9.620;2023-05-22T10:03:08;99132.91;;;40.15;18.55
61742;BME280;47650;49.848;9.620;2023-05-22T10:05:36;99165.94;;;37.35;20.56
61742;BME280;47650;49.848;9.620;2023-05-22T10:08:23;99189.75;;;38.79;20.90
61742;BME280;47650;49.848;9.620;2023-05-22T10:10:58;99183.72;;;40.32;18.77
61742;BME280;47650;49.848;9.620;2023-05-22T10:13:24;99172.16;;;41.77;17.84
61742;BME280;47650;49.848;9.620;2023-05-22T10:15:50;99176.66;;;42.90;16.54
61742;BME280;47650;49.848;9.620;2023-05-22T10:18:16;99163.00;;;44.66;14.87
61742;BME280;47650;49.848;9.620;2023-05-22T10:20:43;99159.75;;;45.13;13.66
61742;BME280;47650;49.848;9.620;2023-05-22T10:23:09;99173.47;;;45.32;14.18
61742;BME280;47650;49.848;9.620;2023-05-22T10:25:37;99132.53;;;45.76;13.40
61742;BME280;47650;49.848;9.620;2023-05-22T10:28:03;99168.38;;;45.45;13.38
61742;BME280;47650;49.848;9.620;2023-05-22T10:31:13;99163.41;;;44.27;15.23
61742;BME280;47650;49.848;9.620;2023-05-22T10:33:50;99150.16;;;45.87;13.96
61742;BME280;47650;49.848;9.620;2023-05-22T10:36:36;99153.78;;;45.98;13.40
61742;BME280;47650;49.848;9.620;2023-05-22T10:39:20;99160.34;;;46.71;12.66
61742;BME280;47650;49.848;9.620;2023-05-22T10:41:48;99147.53;;;43.10;15.36
61742;BME280;47650;49.848;9.620;2023-05-22T10:44:16;99153.06;;;45.28;13.64
61742;BME280;47650;49.848;9.620;2023-05-22T10:46:47;99155.81;;;46.09;13.15
61742;BME280;47650;49.848;9.620;2023-05-22T10:49:21;99097.34;;;47.15;13.34
61742;BME280;47650;49.848;9.620;2023-05-22T10:51:54;99107.59;;;47.69;11.96
61742;BME280;47650;49.848;9.620;2023-05-22T10:54:37;99143.78;;;45.94;13.76
61742;BME280;47650;49.848;9.620;2023-05-22T10:57:10;99140.69;;;46.93;13.12
61742;BME280;47650;49.848;9.620;2023-05-22T10:59:37;99083.78;;;46.02;13.04
61742;BME280;47650;49.848;9.620;2023-05-22T11:02:05;99157.78;;;42.33;15.86
61742;BME280;47650;49.848;9.620;2023-05-22T11:04:43;99157.66;;;42.49;16.13
61742;BME280;47650;49.848;9.620;2023-05-22T11:07:08;99144.25;;;45.26;14.41
61742;BME280;47650;49.848;9.620;2023-05-22T11:09:44;99120.59;;;47.19;12.97
61742;BME280;47650;49.848;9.620;2023-05-22T11:12:25;99124.63;;;47.25;12.55
61742;BME280;47650;49.848;9.620;2023-05-22T11:15:12;99119.97;;;48.94;11.61
61742;BME280;47650;49.848;9.620;2023-05-22T11:17:40;99131.06;;;48.63;11.20
61742;BME280;47650;49.848;9.620;2023-05-22T11:20:23;99131.06;;;46.43;12.72
61742;BME280;47650;49.848;9.620;2023-05-22T11:22:50;99118.06;;;48.28;11.92
61742;BME280;47650;49.848;9.620;2023-05-22T11:25:21;99080.28;;;48.36;10.84
61742;BME280;47650;49.848;9.620;2023-05-22T11:27:48;99131.66;;;47.73;11.90
61742;BME280;47650;49.848;9.620;2023-05-22T11:30:15;99122.16;;;48.72;12.07
61742;BME280;47650;49.848;9.620;2023-05-22T11:32:44;99102.72;;;47.83;12.63
61742;BME280;47650;49.848;9.620;2023-05-22T11:35:20;99121.22;;;49.62;10.90
61742;BME280;47650;49.848;9.620;2023-05-22T11:37:47;99120.44;;;48.36;11.90
61742;BME280;47650;49.848;9.620;2023-05-22T11:40:18;99072.75;;;49.74;10.73
61742;BME280;47650;49.848;9.620;2023-05-22T11:42:45;99087.53;;;48.82;10.88
61742;BME280;47650;49.848;9.620;2023-05-22T11:45:12;99098.38;;;48.31;11.05
61742;BME280;47650;49.848;9.620;2023-05-22T11:47:39;99103.31;;;49.10;10.59
61742;BME280;47650;49.848;9.620;2023-05-22T11:50:08;99035.66;;;47.89;11.03
61742;BME280;47650;49.848;9.620;2023-05-22T11:52:35;99110.78;;;49.59;11.23
61742;BME280;47650;49.848;9.620;2023-05-22T11:55:03;99105.16;;;50.13;10.21
61742;BME280;47650;49.848;9.620;2023-05-22T11:57:35;99066.72;;;50.50;9.71
61742;BME280;47650;49.848;9.620;2023-05-22T12:00:02;99086.44;;;51.17;10.26
61742;BME280;47650;49.848;9.620;2023-05-22T12:02:34;99078.75;;;50.54;9.90
61742;BME280;47650;49.848;9.620;2023-05-22T12:05:02;99085.44;;;51.28;9.51
61742;BME280;47650;49.848;9.620;2023-05-22T12:07:28;99047.50;;;50.89;9.57
61742;BME280;47650;49.848;9.620;2023-05-22T12:09:56;99083.47;;;47.82;11.25
61742;BME280;47650;49.848;9.620;2023-05-22T12:12:22;99044.75;;;50.61;10.15
61742;BME280;47650;49.848;9.620;2023-05-22T12:14:48;99073.19;;;51.34;9.79
61742;BME280;47650;49.848;9.620;2023-05-22T12:17:16;99066.81;;;52.03;9.42
61742;BME280;47650;49.848;9.620;2023-05-22T12:19:43;99040.28;;;52.63;7.86
61742;BME280;47650;49.848;9.620;2023-05-22T12:22:11;99066.47;;;53.09;7.77
61742;BME280;47650;49.848;9.620;2023-05-22T12:24:39;99036.75;;;51.77;8.48
61742;BME280;47650;49.848;9.620;2023-05-22T12:27:09;99012.72;;;51.68;9.05
61742;BME280;47650;49.848;9.620;2023-05-22T12:29:36;99067.00;;;50.79;9.33
61742;BME280;47650;49.848;9.620;2023-05-22T12:32:04;99044.75;;;53.06;8.86
61742;BME280;47650;49.848;9.620;2023-05-22T12:34:34;99051.69;;;54.34;7.55
61742;BME280;47650;49.848;9.620;2023-05-22T12:37:16;99048.88;;;54.91;6.16
61742;BME280;47650;49.848;9.620;2023-05-22T12:39:52;99073.00;;;46.29;11.23
61742;BME280;47650;49.848;9.620;2023-05-22T12:42:19;99075.28;;;43.01;14.18
61742;BME280;47650;49.848;9.620;2023-05-22T12:44:44;99065.34;;;46.95;11.43
61742;BME280;47650;49.848;9.620;2023-05-22T12:47:10;99000.31;;;49.17;9.85
61742;BME280;47650;49.848;9.620;2023-05-22T12:49:41;99039.50;;;50.40;9.30
61742;BME280;47650;49.848;9.620;2023-05-22T12:52:07;99008.50;;;51.04;8.99
61742;BME280;47650;49.848;9.620;2023-05-22T12:54:34;99004.50;;;52.69;7.75
61742;BME280;47650;49.848;9.620;2023-05-22T12:56:59;99020.25;;;49.88;9.47
61742;BME280;47650;49.848;9.620;2023-05-22T12:59:25;99028.69;;;49.60;9.63
61742;BME280;47650;49.848;9.620;2023-05-22T13:01:50;99042.44;;;47.95;10.20
61742;BME280;47650;49.848;9.620;2023-05-22T13:04:17;99058.44;;;45.63;12.61
61742;BME280;47650;49.848;9.620;2023-05-22T13:06:43;98998.69;;;47.94;10.39
61742;BME280;47650;49.848;9.620;2023-05-22T13:09:09;99040.72;;;48.99;10.63
61742;BME280;47650;49.848;9.620;2023-05-22T13:11:35;99034.38;;;50.78;9.10
61742;BME280;47650;49.848;9.620;2023-05-22T13:14:01;98976.25;;;51.58;8.48
61742;BME280;47650;49.848;9.620;2023-05-22T13:16:29;99037.59;;;53.14;6.31